Terminal Aerodrome Forecast
Issued by NWS Sioux Falls, SD

Home | Current Version | Previous Version | Graphics & Text | Print | Product List | Glossary On
Versions: 1 2 3 4 5 6 7 8 9 10 11 12 13 14 15 16 17 18
000
FTUS43 KFSD 161740 AAA
TAFSUX
TAF AMD
KSUX 161740Z 1618/1718 15014KT P6SM BKN250
     FM162000 15015G22KT P6SM BKN250
     FM170900 16012KT P6SM BKN015
     FM171000 16012KT P6SM BKN020
     FM171100 17012KT P6SM OVC015
     FM171300 18010KT P6SM OVC020
     FM171400 18009KT 3SM BR OVC008
     FM171600 19009KT 3SM BR OVC010
     FM171700 20009KT P6SM OVC010=

USA.gov is the U.S. government's official web portal to all federal, state and local government web resources and services.